sensor_id;sensor_type;location;lat;lon;timestamp;temperature;humidity
573;DHT22;271;51.114;13.780;2023-09-30T00:02:37;20.70;1.00
573;DHT22;271;51.114;13.780;2023-09-30T00:05:25;20.60;1.00
573;DHT22;271;51.114;13.780;2023-09-30T00:08:12;20.50;1.00
573;DHT22;271;51.114;13.780;2023-09-30T00:11:02;20.50;1.00
573;DHT22;271;51.114;13.780;2023-09-30T00:13:50;20.50;1.00
573;DHT22;271;51.114;13.780;2023-09-30T00:16:38;20.40;1.00
573;DHT22;271;51.114;13.780;2023-09-30T00:19:26;20.40;1.00
573;DHT22;271;51.114;13.780;2023-09-30T00:22:13;20.30;1.00
573;DHT22;271;51.114;13.780;2023-09-30T00:25:01;20.20;1.00
573;DHT22;271;51.114;13.780;2023-09-30T00:27:50;20.20;1.00
573;DHT22;271;51.114;13.780;2023-09-30T00:30:38;20.10;1.00
573;DHT22;271;51.114;13.780;2023-09-30T00:33:26;20.10;1.00
573;DHT22;271;51.114;13.780;2023-09-30T00:36:14;20.10;1.00
573;DHT22;271;51.114;13.780;2023-09-30T00:39:01;20.00;1.00
573;DHT22;271;51.114;13.780;2023-09-30T00:41:50;19.90;1.00
573;DHT22;271;51.114;13.780;2023-09-30T00:44:39;19.90;1.00
573;DHT22;271;51.114;13.780;2023-09-30T00:47:27;19.90;1.00
573;DHT22;271;51.114;13.780;2023-09-30T00:50:15;19.90;1.00
573;DHT22;271;51.114;13.780;2023-09-30T00:53:03;19.80;1.00
573;DHT22;271;51.114;13.780;2023-09-30T00:55:52;19.70;1.00
573;DHT22;271;51.114;13.780;2023-09-30T00:58:41;19.70;1.00
573;DHT22;271;51.114;13.780;2023-09-30T01:01:30;19.60;1.00
573;DHT22;271;51.114;13.780;2023-09-30T01:04:18;19.50;1.00
573;DHT22;271;51.114;13.780;2023-09-30T01:07:07;19.40;1.00
573;DHT22;271;51.114;13.780;2023-09-30T01:09:55;19.30;1.00
573;DHT22;271;51.114;13.780;2023-09-30T01:12:43;19.10;1.00
573;DHT22;271;51.114;13.780;2023-09-30T01:15:30;19.00;1.00
573;DHT22;271;51.114;13.780;2023-09-30T01:18:19;18.90;1.00
573;DHT22;271;51.114;13.780;2023-09-30T01:21:07;18.80;1.00
573;DHT22;271;51.114;13.780;2023-09-30T01:23:56;18.70;1.00
573;DHT22;271;51.114;13.780;2023-09-30T01:26:44;18.60;1.00
573;DHT22;271;51.114;13.780;2023-09-30T01:29:32;18.50;1.00
573;DHT22;271;51.114;13.780;2023-09-30T01:32:19;18.30;1.00
573;DHT22;271;51.114;13.780;2023-09-30T01:35:08;18.10;1.00
573;DHT22;271;51.114;13.780;2023-09-30T01:37:56;18.00;1.00
573;DHT22;271;51.114;13.780;2023-09-30T01:40:45;18.00;1.00
573;DHT22;271;51.114;13.780;2023-09-30T01:43:33;17.90;1.00
573;DHT22;271;51.114;13.780;2023-09-30T01:46:22;17.90;1.00
573;DHT22;271;51.114;13.780;2023-09-30T01:49:10;17.90;1.00
573;DHT22;271;51.114;13.780;2023-09-30T01:51:58;17.80;1.00
573;DHT22;271;51.114;13.780;2023-09-30T01:54:45;17.80;1.00
573;DHT22;271;51.114;13.780;2023-09-30T01:57:35;17.70;1.00
573;DHT22;271;51.114;13.780;2023-09-30T02:00:23;17.70;1.00
573;DHT22;271;51.114;13.780;2023-09-30T02:03:11;17.60;1.00
573;DHT22;271;51.114;13.780;2023-09-30T02:05:58;17.60;1.00
573;DHT22;271;51.114;13.780;2023-09-30T02:08:46;17.60;1.00
573;DHT22;271;51.114;13.780;2023-09-30T02:11:34;17.50;1.00
573;DHT22;271;51.114;13.780;2023-09-30T02:14:23;17.60;1.00
573;DHT22;271;51.114;13.780;2023-09-30T02:17:11;17.60;1.00
573;DHT22;271;51.114;13.780;2023-09-30T02:19:59;17.40;1.00
573;DHT22;271;51.114;13.780;2023-09-30T02:22:52;17.50;1.00
573;DHT22;271;51.114;13.780;2023-09-30T02:25:40;17.40;1.00
573;DHT22;271;51.114;13.780;2023-09-30T02:28:28;17.30;1.00
573;DHT22;271;51.114;13.780;2023-09-30T02:31:19;17.30;1.00
573;DHT22;271;51.114;13.780;2023-09-30T02:34:07;17.20;1.00
573;DHT22;271;51.114;13.780;2023-09-30T02:36:55;17.30;1.00
573;DHT22;271;51.114;13.780;2023-09-30T02:39:42;17.20;1.00
573;DHT22;271;51.114;13.780;2023-09-30T02:42:31;17.20;1.00
573;DHT22;271;51.114;13.780;2023-09-30T02:45:18;17.20;1.00
573;DHT22;271;51.114;13.780;2023-09-30T02:48:08;17.20;1.00
573;DHT22;271;51.114;13.780;2023-09-30T02:50:56;17.20;1.00
573;DHT22;271;51.114;13.780;2023-09-30T02:53:43;17.20;1.00
573;DHT22;271;51.114;13.780;2023-09-30T02:56:31;17.20;1.00
573;DHT22;271;51.114;13.780;2023-09-30T02:59:19;17.20;1.00
573;DHT22;271;51.114;13.780;2023-09-30T03:02:08;17.10;1.00
573;DHT22;271;51.114;13.780;2023-09-30T03:04:57;17.10;1.00
573;DHT22;271;51.114;13.780;2023-09-30T03:07:45;17.20;1.00
573;DHT22;271;51.114;13.780;2023-09-30T03:10:33;17.20;1.00
573;DHT22;271;51.114;13.780;2023-09-30T03:13:20;17.10;1.00
573;DHT22;271;51.114;13.780;2023-09-30T03:16:08;17.00;1.00
573;DHT22;271;51.114;13.780;2023-09-30T03:18:57;17.10;1.00
573;DHT22;271;51.114;13.780;2023-09-30T03:21:46;17.10;1.00
573;DHT22;271;51.114;13.780;2023-09-30T03:24:33;17.00;1.00
573;DHT22;271;51.114;13.780;2023-09-30T03:27:22;16.90;1.00
573;DHT22;271;51.114;13.780;2023-09-30T03:30:10;16.90;1.00
573;DHT22;271;51.114;13.780;2023-09-30T03:32:59;16.80;1.00
573;DHT22;271;51.114;13.780;2023-09-30T03:35:47;16.80;1.00
573;DHT22;271;51.114;13.780;2023-09-30T03:38:36;16.70;1.00
573;DHT22;271;51.114;13.780;2023-09-30T03:41:25;16.60;1.00
573;DHT22;271;51.114;13.780;2023-09-30T03:44:13;16.60;1.00
573;DHT22;271;51.114;13.780;2023-09-30T03:47:01;16.60;1.00
573;DHT22;271;51.114;13.780;2023-09-30T03:49:49;16.50;1.00
573;DHT22;271;51.114;13.780;2023-09-30T03:52:36;16.50;1.00
573;DHT22;271;51.114;13.780;2023-09-30T03:55:26;16.50;1.00
573;DHT22;271;51.114;13.780;2023-09-30T03:58:16;16.40;1.00
573;DHT22;271;51.114;13.780;2023-09-30T04:01:04;16.30;1.00
573;DHT22;271;51.114;13.780;2023-09-30T04:03:52;16.20;1.00
573;DHT22;271;51.114;13.780;2023-09-30T04:06:41;16.20;1.00
573;DHT22;271;51.114;13.780;2023-09-30T04:09:32;16.20;1.00
573;DHT22;271;51.114;13.780;2023-09-30T04:12:22;16.20;1.00
573;DHT22;271;51.114;13.780;2023-09-30T04:15:10;16.20;1.00
573;DHT22;271;51.114;13.780;2023-09-30T04:17:58;16.10;1.00
573;DHT22;271;51.114;13.780;2023-09-30T04:20:47;16.10;1.00
573;DHT22;271;51.114;13.780;2023-09-30T04:23:34;16.00;1.00
573;DHT22;271;51.114;13.780;2023-09-30T04:26:23;15.90;1.00
573;DHT22;271;51.114;13.780;2023-09-30T04:29:12;15.90;1.00
573;DHT22;271;51.114;13.780;2023-09-30T04:32:00;15.80;1.00
573;DHT22;271;51.114;13.780;2023-09-30T04:34:48;15.70;1.00
573;DHT22;271;51.114;13.780;2023-09-30T04:37:37;15.60;1.00
573;DHT22;271;51.114;13.780;2023-09-30T04:40:25;15.40;1.00
573;DHT22;271;51.114;13.780;2023-09-30T04:43:15;15.50;1.00
573;DHT22;271;51.114;13.780;2023-09-30T04:46:05;15.40;1.00
573;DHT22;271;51.114;13.780;2023-09-30T04:48:53;15.30;1.00
573;DHT22;271;51.114;13.780;2023-09-30T04:51:41;15.30;1.00
573;DHT22;271;51.114;13.780;2023-09-30T04:54:29;15.10;1.00
573;DHT22;271;51.114;13.780;2023-09-30T04:57:16;15.10;1.00
573;DHT22;271;51.114;13.780;2023-09-30T05:00:07;15.10;1.00
573;DHT22;271;51.114;13.780;2023-09-30T05:02:58;15.10;1.00
573;DHT22;271;51.114;13.780;2023-09-30T05:05:46;15.00;1.00
573;DHT22;271;51.114;13.780;2023-09-30T05:08:34;15.00;1.00
573;DHT22;271;51.114;13.780;2023-09-30T05:11:22;15.00;1.00
573;DHT22;271;51.114;13.780;2023-09-30T05:14:10;15.00;1.00
573;DHT22;271;51.114;13.780;2023-09-30T05:16:59;15.00;1.00
573;DHT22;271;51.114;13.780;2023-09-30T05:19:51;15.00;1.00
573;DHT22;271;51.114;13.780;2023-09-30T05:22:39;15.00;1.00
573;DHT22;271;51.114;13.780;2023-09-30T05:25:31;15.00;1.00
573;DHT22;271;51.114;13.780;2023-09-30T05:28:20;15.00;1.00
573;DHT22;271;51.114;13.780;2023-09-30T05:31:07;15.10;1.00
573;DHT22;271;51.114;13.780;2023-09-30T05:33:55;15.30;1.00
573;DHT22;271;51.114;13.780;2023-09-30T05:36:44;15.40;1.00
573;DHT22;271;51.114;13.780;2023-09-30T05:39:32;15.40;1.00
573;DHT22;271;51.114;13.780;2023-09-30T05:42:19;15.40;1.00
573;DHT22;271;51.114;13.780;2023-09-30T05:45:09;15.40;1.00
573;DHT22;271;51.114;13.780;2023-09-30T05:47:58;15.40;1.00
573;DHT22;271;51.114;13.780;2023-09-30T05:50:48;15.40;1.00
573;DHT22;271;51.114;13.780;2023-09-30T05:53:38;15.50;1.00
573;DHT22;271;51.114;13.780;2023-09-30T05:56:25;15.60;1.00
573;DHT22;271;51.114;13.780;2023-09-30T05:59:13;15.50;1.00
573;DHT22;271;51.114;13.780;2023-09-30T06:02:01;15.40;1.00
573;DHT22;271;51.114;13.780;2023-09-30T06:04:49;15.50;1.00
573;DHT22;271;51.114;13.780;2023-09-30T06:07:39;15.60;1.00
573;DHT22;271;51.114;13.780;2023-09-30T06:10:29;15.80;1.00
573;DHT22;271;51.114;13.780;2023-09-30T06:13:16;15.80;1.00
573;DHT22;271;51.114;13.780;2023-09-30T06:16:04;15.80;1.00
573;DHT22;271;51.114;13.780;2023-09-30T06:18:52;15.80;1.00
573;DHT22;271;51.114;13.780;2023-09-30T06:21:40;15.80;1.00
573;DHT22;271;51.114;13.780;2023-09-30T06:24:30;15.80;1.00
573;DHT22;271;51.114;13.780;2023-09-30T06:27:19;15.70;1.00
573;DHT22;271;51.114;13.780;2023-09-30T06:30:07;15.70;1.00
573;DHT22;271;51.114;13.780;2023-09-30T06:32:56;15.70;1.00
573;DHT22;271;51.114;13.780;2023-09-30T06:35:44;15.80;1.00
573;DHT22;271;51.114;13.780;2023-09-30T06:38:37;16.10;1.00
573;DHT22;271;51.114;13.780;2023-09-30T06:41:24;16.20;1.00
573;DHT22;271;51.114;13.780;2023-09-30T06:44:13;16.20;1.00
573;DHT22;271;51.114;13.780;2023-09-30T06:47:01;16.10;1.00
573;DHT22;271;51.114;13.780;2023-09-30T06:49:49;16.20;1.00
573;DHT22;271;51.114;13.780;2023-09-30T06:52:38;16.40;1.00
573;DHT22;271;51.114;13.780;2023-09-30T06:55:25;17.00;1.00
573;DHT22;271;51.114;13.780;2023-09-30T06:58:15;17.70;1.00
573;DHT22;271;51.114;13.780;2023-09-30T07:01:08;18.80;1.00
573;DHT22;271;51.114;13.780;2023-09-30T07:03:57;19.30;1.00
573;DHT22;271;51.114;13.780;2023-09-30T07:06:45;19.10;1.00
573;DHT22;271;51.114;13.780;2023-09-30T07:09:35;18.50;1.00
573;DHT22;271;51.114;13.780;2023-09-30T07:12:23;18.00;1.00
573;DHT22;271;51.114;13.780;2023-09-30T07:15:11;17.70;1.00
573;DHT22;271;51.114;13.780;2023-09-30T07:18:01;17.50;1.00
573;DHT22;271;51.114;13.780;2023-09-30T07:20:49;17.40;1.00
573;DHT22;271;51.114;13.780;2023-09-30T07:23:37;17.40;1.00
573;DHT22;271;51.114;13.780;2023-09-30T07:26:25;18.00;1.00
573;DHT22;271;51.114;13.780;2023-09-30T07:29:14;18.30;1.00
573;DHT22;271;51.114;13.780;2023-09-30T07:32:01;18.20;1.00
573;DHT22;271;51.114;13.780;2023-09-30T07:34:51;18.20;1.00
573;DHT22;271;51.114;13.780;2023-09-30T07:37:39;18.30;1.00
573;DHT22;271;51.114;13.780;2023-09-30T07:40:27;18.30;1.00
573;DHT22;271;51.114;13.780;2023-09-30T07:43:15;18.30;1.00
573;DHT22;271;51.114;13.780;2023-09-30T07:46:05;18.20;1.00
573;DHT22;271;51.114;13.780;2023-09-30T07:48:53;18.20;1.00
573;DHT22;271;51.114;13.780;2023-09-30T07:51:43;18.10;1.00
573;DHT22;271;51.114;13.780;2023-09-30T07:54:30;18.10;1.00
573;DHT22;271;51.114;13.780;2023-09-30T07:57:18;18.20;1.00
573;DHT22;271;51.114;13.780;2023-09-30T08:00:08;18.30;1.00
573;DHT22;271;51.114;13.780;2023-09-30T08:03:01;18.50;1.00
573;DHT22;271;51.114;13.780;2023-09-30T08:05:49;18.50;1.00
573;DHT22;271;51.114;13.780;2023-09-30T08:08:38;18.50;1.00
573;DHT22;271;51.114;13.780;2023-09-30T08:11:26;18.60;1.00
573;DHT22;271;51.114;13.780;2023-09-30T08:14:17;18.40;1.00
573;DHT22;271;51.114;13.780;2023-09-30T08:17:04;18.40;1.00
573;DHT22;271;51.114;13.780;2023-09-30T08:19:52;18.40;1.00
573;DHT22;271;51.114;13.780;2023-09-30T08:22:40;18.30;1.00
573;DHT22;271;51.114;13.780;2023-09-30T08:25:29;18.30;1.00
573;DHT22;271;51.114;13.780;2023-09-30T08:28:17;18.30;1.00
573;DHT22;271;51.114;13.780;2023-09-30T08:31:05;18.30;1.00
573;DHT22;271;51.114;13.780;2023-09-30T08:33:53;18.30;1.00
573;DHT22;271;51.114;13.780;2023-09-30T08:36:41;18.70;1.00
573;DHT22;271;51.114;13.780;2023-09-30T08:39:29;19.30;1.00
573;DHT22;271;51.114;13.780;2023-09-30T08:42:18;19.40;1.00
573;DHT22;271;51.114;13.780;2023-09-30T08:45:09;19.50;1.00
573;DHT22;271;51.114;13.780;2023-09-30T08:47:58;19.60;1.00
573;DHT22;271;51.114;13.780;2023-09-30T08:50:53;19.90;1.00
573;DHT22;271;51.114;13.780;2023-09-30T08:53:41;20.00;1.00
573;DHT22;271;51.114;13.780;2023-09-30T08:56:30;19.90;1.00
573;DHT22;271;51.114;13.780;2023-09-30T08:59:21;19.80;1.00
573;DHT22;271;51.114;13.780;2023-09-30T09:02:09;19.80;1.00
573;DHT22;271;51.114;13.780;2023-09-30T09:04:58;19.80;1.00
573;DHT22;271;51.114;13.780;2023-09-30T09:07:46;19.70;1.00
573;DHT22;271;51.114;13.780;2023-09-30T09:10:34;19.40;1.00
573;DHT22;271;51.114;13.780;2023-09-30T09:13:21;19.30;1.00
573;DHT22;271;51.114;13.780;2023-09-30T09:16:11;19.30;1.00
573;DHT22;271;51.114;13.780;2023-09-30T09:18:59;19.40;1.00
573;DHT22;271;51.114;13.780;2023-09-30T09:21:53;19.50;1.00
573;DHT22;271;51.114;13.780;2023-09-30T09:24:42;19.90;1.00
573;DHT22;271;51.114;13.780;2023-09-30T09:27:34;19.90;1.00
573;DHT22;271;51.114;13.780;2023-09-30T09:30:23;19.60;1.00
573;DHT22;271;51.114;13.780;2023-09-30T09:33:12;19.60;1.00
573;DHT22;271;51.114;13.780;2023-09-30T09:36:00;19.40;1.00
573;DHT22;271;51.114;13.780;2023-09-30T09:38:49;19.60;1.00
573;DHT22;271;51.114;13.780;2023-09-30T09:41:49;19.90;1.00
573;DHT22;271;51.114;13.780;2023-09-30T09:44:38;20.00;1.00
573;DHT22;271;51.114;13.780;2023-09-30T09:47:27;19.90;1.00
573;DHT22;271;51.114;13.780;2023-09-30T09:50:17;20.00;1.00
573;DHT22;271;51.114;13.780;2023-09-30T09:53:05;20.30;1.00
573;DHT22;271;51.114;13.780;2023-09-30T09:55:53;20.30;1.00
573;DHT22;271;51.114;13.780;2023-09-30T09:58:44;20.80;1.00
573;DHT22;271;51.114;13.780;2023-09-30T10:01:34;21.20;1.00
573;DHT22;271;51.114;13.780;2023-09-30T10:04:22;21.90;1.00
573;DHT22;271;51.114;13.780;2023-09-30T10:07:21;21.90;1.00
573;DHT22;271;51.114;13.780;2023-09-30T10:10:13;21.50;1.00
573;DHT22;271;51.114;13.780;2023-09-30T10:13:03;21.10;1.00
573;DHT22;271;51.114;13.780;2023-09-30T10:15:52;20.90;1.00
573;DHT22;271;51.114;13.780;2023-09-30T10:19:07;20.70;1.00
573;DHT22;271;51.114;13.780;2023-09-30T10:22:21;20.40;1.00
573;DHT22;271;51.114;13.780;2023-09-30T10:28:38;19.70;1.00
573;DHT22;271;51.114;13.780;2023-09-30T10:31:27;19.80;1.00
573;DHT22;271;51.114;13.780;2023-09-30T10:34:23;20.10;1.00
573;DHT22;271;51.114;13.780;2023-09-30T10:37:23;20.00;1.00
573;DHT22;271;51.114;13.780;2023-09-30T10:40:26;19.90;1.00
573;DHT22;271;51.114;13.780;2023-09-30T10:43:29;19.80;1.00
573;DHT22;271;51.114;13.780;2023-09-30T10:46:32;19.80;1.00
573;DHT22;271;51.114;13.780;2023-09-30T10:49:30;19.90;1.00
573;DHT22;271;51.114;13.780;2023-09-30T10:52:23;20.20;1.00
573;DHT22;271;51.114;13.780;2023-09-30T10:55:18;20.20;1.00
573;DHT22;271;51.114;13.780;2023-09-30T10:58:06;20.40;1.00
573;DHT22;271;51.114;13.780;2023-09-30T11:00:54;20.30;1.00
573;DHT22;271;51.114;13.780;2023-09-30T11:03:43;20.20;1.00
573;DHT22;271;51.114;13.780;2023-09-30T11:06:32;20.10;1.00
573;DHT22;271;51.114;13.780;2023-09-30T11:09:22;19.90;1.00
573;DHT22;271;51.114;13.780;2023-09-30T11:12:14;19.70;1.00
573;DHT22;271;51.114;13.780;2023-09-30T11:15:07;19.70;1.00
573;DHT22;271;51.114;13.780;2023-09-30T11:18:12;19.70;1.00
573;DHT22;271;51.114;13.780;2023-09-30T11:21:06;19.70;1.00
573;DHT22;271;51.114;13.780;2023-09-30T11:23:55;19.70;1.00
573;DHT22;271;51.114;13.780;2023-09-30T11:26:45;20.00;1.00
573;DHT22;271;51.114;13.780;2023-09-30T11:29:33;20.10;1.00
573;DHT22;271;51.114;13.780;2023-09-30T11:32:24;20.30;1.00
573;DHT22;271;51.114;13.780;2023-09-30T11:35:22;20.20;1.00
573;DHT22;271;51.114;13.780;2023-09-30T11:38:10;20.20;1.00
573;DHT22;271;51.114;13.780;2023-09-30T11:41:07;20.20;1.00
573;DHT22;271;51.114;13.780;2023-09-30T11:44:03;20.00;1.00
573;DHT22;271;51.114;13.780;2023-09-30T11:47:00;19.80;1.00
573;DHT22;271;51.114;13.780;2023-09-30T11:49:53;19.60;1.00
573;DHT22;271;51.114;13.780;2023-09-30T11:52:44;19.40;1.00
573;DHT22;271;51.114;13.780;2023-09-30T11:55:33;19.30;1.00
573;DHT22;271;51.114;13.780;2023-09-30T11:58:23;19.20;1.00
573;DHT22;271;51.114;13.780;2023-09-30T12:01:14;19.10;1.00
573;DHT22;271;51.114;13.780;2023-09-30T12:04:03;18.90;1.00
573;DHT22;271;51.114;13.780;2023-09-30T12:06:50;18.80;1.00
573;DHT22;271;51.114;13.780;2023-09-30T12:09:39;18.80;1.00
573;DHT22;271;51.114;13.780;2023-09-30T12:12:26;18.70;1.00
573;DHT22;271;51.114;13.780;2023-09-30T12:15:15;18.60;1.00
573;DHT22;271;51.114;13.780;2023-09-30T12:18:04;18.60;1.00
573;DHT22;271;51.114;13.780;2023-09-30T12:20:52;18.60;1.00
573;DHT22;271;51.114;13.780;2023-09-30T12:23:42;18.60;1.00
573;DHT22;271;51.114;13.780;2023-09-30T12:26:30;18.70;1.00
573;DHT22;271;51.114;13.780;2023-09-30T12:29:19;18.80;1.00
573;DHT22;271;51.114;13.780;2023-09-30T12:32:08;18.80;1.00
573;DHT22;271;51.114;13.780;2023-09-30T12:34:57;18.80;1.00
573;DHT22;271;51.114;13.780;2023-09-30T12:37:45;18.80;1.00
573;DHT22;271;51.114;13.780;2023-09-30T12:40:32;18.80;1.00
573;DHT22;271;51.114;13.780;2023-09-30T12:43:20;18.70;1.00
573;DHT22;271;51.114;13.780;2023-09-30T12:46:08;18.70;1.00
573;DHT22;271;51.114;13.780;2023-09-30T12:48:59;18.80;1.00
573;DHT22;271;51.114;13.780;2023-09-30T12:51:48;19.00;1.00
573;DHT22;271;51.114;13.780;2023-09-30T12:54:36;19.00;1.00
573;DHT22;271;51.114;13.780;2023-09-30T12:57:24;19.10;1.00
573;DHT22;271;51.114;13.780;2023-09-30T13:00:12;19.10;1.00
573;DHT22;271;51.114;13.780;2023-09-30T13:03:03;19.20;1.00
573;DHT22;271;51.114;13.780;2023-09-30T13:05:51;19.20;1.00
573;DHT22;271;51.114;13.780;2023-09-30T13:08:40;19.20;1.00
573;DHT22;271;51.114;13.780;2023-09-30T13:11:27;19.00;1.00
573;DHT22;271;51.114;13.780;2023-09-30T13:14:15;18.90;1.00
573;DHT22;271;51.114;13.780;2023-09-30T13:17:03;19.00;1.00
573;DHT22;271;51.114;13.780;2023-09-30T13:19:51;19.00;1.00
573;DHT22;271;51.114;13.780;2023-09-30T13:22:39;19.00;1.00
573;DHT22;271;51.114;13.780;2023-09-30T13:25:28;19.00;1.00
573;DHT22;271;51.114;13.780;2023-09-30T13:28:16;19.10;1.00
573;DHT22;271;51.114;13.780;2023-09-30T13:31:04;19.00;1.00
573;DHT22;271;51.114;13.780;2023-09-30T13:33:51;19.10;1.00
573;DHT22;271;51.114;13.780;2023-09-30T13:36:39;19.20;1.00
573;DHT22;271;51.114;13.780;2023-09-30T13:39:27;19.40;1.00
573;DHT22;271;51.114;13.780;2023-09-30T13:42:16;19.50;1.00
573;DHT22;271;51.114;13.780;2023-09-30T13:45:05;19.60;1.00
573;DHT22;271;51.114;13.780;2023-09-30T13:47:54;19.80;1.00
573;DHT22;271;51.114;13.780;2023-09-30T13:50:42;19.90;1.00
573;DHT22;271;51.114;13.780;2023-09-30T13:53:30;20.10;1.00
573;DHT22;271;51.114;13.780;2023-09-30T13:56:17;20.10;1.00
573;DHT22;271;51.114;13.780;2023-09-30T13:59:06;20.10;1.00
573;DHT22;271;51.114;13.780;2023-09-30T14:01:54;20.00;1.00
573;DHT22;271;51.114;13.780;2023-09-30T14:04:41;20.00;1.00
573;DHT22;271;51.114;13.780;2023-09-30T14:07:30;20.00;1.00
573;DHT22;271;51.114;13.780;2023-09-30T14:10:18;20.00;1.00
573;DHT22;271;51.114;13.780;2023-09-30T14:13:06;20.10;1.00
573;DHT22;271;51.114;13.780;2023-09-30T14:15:55;20.20;1.00
573;DHT22;271;51.114;13.780;2023-09-30T14:18:43;20.20;1.00
573;DHT22;271;51.114;13.780;2023-09-30T14:21:32;20.00;1.00
573;DHT22;271;51.114;13.780;2023-09-30T14:24:19;20.10;1.00
573;DHT22;271;51.114;13.780;2023-09-30T14:27:07;20.00;1.00
573;DHT22;271;51.114;13.780;2023-09-30T14:29:55;19.90;1.00
573;DHT22;271;51.114;13.780;2023-09-30T14:32:44;19.80;1.00
573;DHT22;271;51.114;13.780;2023-09-30T14:35:33;19.70;1.00
573;DHT22;271;51.114;13.780;2023-09-30T14:38:21;19.50;1.00
573;DHT22;271;51.114;13.780;2023-09-30T14:41:09;19.40;1.00
573;DHT22;271;51.114;13.780;2023-09-30T14:43:58;19.40;1.00
573;DHT22;271;51.114;13.780;2023-09-30T14:46:46;19.30;1.00
573;DHT22;271;51.114;13.780;2023-09-30T14:49:36;19.20;1.00
573;DHT22;271;51.114;13.780;2023-09-30T14:52:23;19.10;1.00
573;DHT22;271;51.114;13.780;2023-09-30T14:55:12;19.10;1.00
573;DHT22;271;51.114;13.780;2023-09-30T14:57:59;19.00;1.00
573;DHT22;271;51.114;13.780;2023-09-30T15:00:50;18.90;1.00
573;DHT22;271;51.114;13.780;2023-09-30T15:03:38;18.90;1.00
573;DHT22;271;51.114;13.780;2023-09-30T15:06:27;18.90;1.00
573;DHT22;271;51.114;13.780;2023-09-30T15:09:15;18.80;1.00
573;DHT22;271;51.114;13.780;2023-09-30T15:12:03;18.80;1.00
573;DHT22;271;51.114;13.780;2023-09-30T15:15:25;18.80;1.00
573;DHT22;271;51.114;13.780;2023-09-30T15:18:37;18.70;1.00
573;DHT22;271;51.114;13.780;2023-09-30T15:29:26;18.50;1.00
573;DHT22;271;51.114;13.780;2023-09-30T15:32:17;18.40;1.00
573;DHT22;271;51.114;13.780;2023-09-30T15:35:11;18.40;1.00
573;DHT22;271;51.114;13.780;2023-09-30T15:41:38;18.30;1.00
573;DHT22;271;51.114;13.780;2023-09-30T15:44:28;18.30;1.00
573;DHT22;271;51.114;13.780;2023-09-30T15:47:16;18.20;1.00
573;DHT22;271;51.114;13.780;2023-09-30T15:50:07;18.10;1.00
573;DHT22;271;51.114;13.780;2023-09-30T15:52:55;18.10;1.00
573;DHT22;271;51.114;13.780;2023-09-30T15:55:43;18.10;1.00
573;DHT22;271;51.114;13.780;2023-09-30T15:58:31;18.00;1.00
573;DHT22;271;51.114;13.780;2023-09-30T16:01:24;18.00;1.00
573;DHT22;271;51.114;13.780;2023-09-30T16:04:16;17.90;1.00
573;DHT22;271;51.114;13.780;2023-09-30T16:07:04;17.80;1.00
573;DHT22;271;51.114;13.780;2023-09-30T16:09:52;17.80;1.00
573;DHT22;271;51.114;13.780;2023-09-30T16:12:40;17.70;1.00
573;DHT22;271;51.114;13.780;2023-09-30T16:15:29;17.60;1.00
573;DHT22;271;51.114;13.780;2023-09-30T16:18:18;17.60;1.00
573;DHT22;271;51.114;13.780;2023-09-30T16:21:06;17.50;1.00
573;DHT22;271;51.114;13.780;2023-09-30T16:23:54;17.40;1.00
573;DHT22;271;51.114;13.780;2023-09-30T16:26:41;17.30;1.00
573;DHT22;271;51.114;13.780;2023-09-30T16:29:29;17.20;1.00
573;DHT22;271;51.114;13.780;2023-09-30T16:32:17;17.10;1.00
573;DHT22;271;51.114;13.780;2023-09-30T16:35:07;17.00;1.00
573;DHT22;271;51.114;13.780;2023-09-30T16:37:56;16.90;1.00
573;DHT22;271;51.114;13.780;2023-09-30T16:40:46;16.90;1.00
573;DHT22;271;51.114;13.780;2023-09-30T16:43:34;16.70;1.00
573;DHT22;271;51.114;13.780;2023-09-30T16:46:23;16.70;1.00
573;DHT22;271;51.114;13.780;2023-09-30T16:49:11;16.50;1.00
573;DHT22;271;51.114;13.780;2023-09-30T16:52:00;16.40;1.00
573;DHT22;271;51.114;13.780;2023-09-30T16:54:48;16.30;1.00
573;DHT22;271;51.114;13.780;2023-09-30T16:57:36;16.20;1.00
573;DHT22;271;51.114;13.780;2023-09-30T17:00:24;16.10;1.00
573;DHT22;271;51.114;13.780;2023-09-30T17:03:13;16.00;1.00
573;DHT22;271;51.114;13.780;2023-09-30T17:06:01;15.80;1.00
573;DHT22;271;51.114;13.780;2023-09-30T17:08:51;15.70;1.00
573;DHT22;271;51.114;13.780;2023-09-30T17:11:39;15.60;1.00
573;DHT22;271;51.114;13.780;2023-09-30T17:14:27;15.50;1.00
573;DHT22;271;51.114;13.780;2023-09-30T17:17:16;15.40;1.00
573;DHT22;271;51.114;13.780;2023-09-30T17:20:05;15.30;1.00
573;DHT22;271;51.114;13.780;2023-09-30T17:22:57;15.20;1.00
573;DHT22;271;51.114;13.780;2023-09-30T17:25:46;14.90;1.00
573;DHT22;271;51.114;13.780;2023-09-30T17:28:34;14.90;1.00
573;DHT22;271;51.114;13.780;2023-09-30T17:31:22;14.80;1.00
573;DHT22;271;51.114;13.780;2023-09-30T17:34:11;14.80;1.00
573;DHT22;271;51.114;13.780;2023-09-30T17:36:59;14.70;1.00
573;DHT22;271;51.114;13.780;2023-09-30T17:39:47;14.60;1.00
573;DHT22;271;51.114;13.780;2023-09-30T17:42:36;14.50;1.00
573;DHT22;271;51.114;13.780;2023-09-30T17:45:24;14.40;1.00
573;DHT22;271;51.114;13.780;2023-09-30T17:48:12;14.30;1.00
573;DHT22;271;51.114;13.780;2023-09-30T17:51:03;14.20;1.00
573;DHT22;271;51.114;13.780;2023-09-30T17:53:52;14.10;1.00
573;DHT22;271;51.114;13.780;2023-09-30T17:56:41;14.00;1.00
573;DHT22;271;51.114;13.780;2023-09-30T17:59:31;14.00;1.00
573;DHT22;271;51.114;13.780;2023-09-30T18:02:19;13.90;1.00
573;DHT22;271;51.114;13.780;2023-09-30T18:05:07;13.80;1.00
573;DHT22;271;51.114;13.780;2023-09-30T18:07:55;13.70;1.00
573;DHT22;271;51.114;13.780;2023-09-30T18:10:44;13.50;1.00
573;DHT22;271;51.114;13.780;2023-09-30T18:13:32;13.50;1.00
573;DHT22;271;51.114;13.780;2023-09-30T18:16:21;13.50;1.00
573;DHT22;271;51.114;13.780;2023-09-30T18:19:10;13.50;1.00
573;DHT22;271;51.114;13.780;2023-09-30T18:21:58;13.40;1.00
573;DHT22;271;51.114;13.780;2023-09-30T18:24:46;13.30;1.00
573;DHT22;271;51.114;13.780;2023-09-30T18:27:33;13.10;1.00
573;DHT22;271;51.114;13.780;2023-09-30T18:30:21;13.10;1.00
573;DHT22;271;51.114;13.780;2023-09-30T18:33:11;13.00;1.00
573;DHT22;271;51.114;13.780;2023-09-30T18:36:00;12.90;1.00
573;DHT22;271;51.114;13.780;2023-09-30T18:38:47;13.00;1.00
573;DHT22;271;51.114;13.780;2023-09-30T18:41:35;13.00;1.00
573;DHT22;271;51.114;13.780;2023-09-30T18:44:23;12.90;1.00
573;DHT22;271;51.114;13.780;2023-09-30T18:47:11;12.70;1.00
573;DHT22;271;51.114;13.780;2023-09-30T18:50:00;12.60;1.00
573;DHT22;271;51.114;13.780;2023-09-30T18:52:47;12.50;1.00
573;DHT22;271;51.114;13.780;2023-09-30T18:55:37;12.60;1.00
573;DHT22;271;51.114;13.780;2023-09-30T18:58:24;12.60;1.00
573;DHT22;271;51.114;13.780;2023-09-30T19:01:12;12.60;1.00
573;DHT22;271;51.114;13.780;2023-09-30T19:04:01;12.60;1.00
573;DHT22;271;51.114;13.780;2023-09-30T19:06:50;12.50;1.00
573;DHT22;271;51.114;13.780;2023-09-30T19:09:37;12.40;1.00
573;DHT22;271;51.114;13.780;2023-09-30T19:12:25;12.20;1.00
573;DHT22;271;51.114;13.780;2023-09-30T19:15:13;12.10;1.00
573;DHT22;271;51.114;13.780;2023-09-30T19:18:01;12.00;1.00